Time;durP1;ratioP1;P1;durP2;ratioP2;P2;SDS_P1;SDS_P2;PMS_P1;PMS_P2;Temp;Humidity;BMP_temperature;BMP_pressure;BME280_temperature;BME280_humidity;BME280_pressure;Samples;Min_cycle;Max_cycle;Signal;HPM_P1;HPM_P2
2021/04/03 00:00:54;;;;;;;8.23;7.42;;;;;;;12.31;58.47;100943.48;1735205;82;21616;-50
2021/04/03 00:03:24;;;;;;;7.55;6.85;;;;;;;12.25;58.21;100941.03;1736289;82;21116;-50
2021/04/03 00:05:53;;;;;;;6.60;6.00;;;;;;;12.18;57.88;100940.32;1736592;82;21176;-50
2021/04/03 00:08:24;;;;;;;5.85;5.25;;;;;;;12.11;57.52;100940.52;1738717;82;21195;-50
2021/04/03 00:10:57;;;;;;;6.22;5.60;;;;;;;11.99;56.54;100956.48;1745507;82;21305;-50
2021/04/03 00:13:35;;;;;;;6.95;6.25;;;;;;;11.89;56.75;100953.21;1771230;79;23149;-50
2021/04/03 00:16:05;;;;;;;6.80;6.20;;;;;;;11.79;57.24;100945.64;1687292;84;21174;-50
2021/04/03 00:18:34;;;;;;;8.85;7.95;;;;;;;11.72;57.41;100941.48;1688917;84;21143;-51
2021/04/03 00:21:02;;;;;;;10.63;9.53;;;;;;;11.65;57.50;100951.59;1686035;84;22035;-50
2021/04/03 00:23:30;;;;;;;10.53;9.53;;;;;;;11.58;57.93;100943.52;1691035;84;21630;-50
2021/04/03 00:25:58;;;;;;;14.68;12.05;;;;;;;11.56;58.21;100938.80;1677367;84;21246;-50
2021/04/03 00:28:28;;;;;;;10.13;9.15;;;;;;;11.55;58.47;100939.67;1687439;84;21611;-50
2021/04/03 00:30:56;;;;;;;10.58;9.58;;;;;;;11.53;58.71;100949.27;1678661;84;21183;-50
2021/04/03 00:33:23;;;;;;;10.45;8.75;;;;;;;11.50;58.12;100954.56;1690581;84;21647;-50
2021/04/03 00:35:52;;;;;;;10.53;9.53;;;;;;;11.50;58.28;100946.28;1689576;84;21208;-50
2021/04/03 00:38:21;;;;;;;8.58;7.65;;;;;;;11.52;58.69;100954.09;1689556;84;21206;-49
2021/04/03 00:40:50;;;;;;;6.50;5.90;;;;;;;11.54;57.93;100958.82;1685696;84;21181;-50
2021/04/03 00:43:25;;;;;;;7.12;6.08;;;;;;;11.55;57.61;100961.82;1686414;84;21646;-50
2021/04/03 00:45:53;;;;;;;6.05;5.45;;;;;;;11.54;57.14;100955.74;1686120;84;21360;-50
2021/04/03 00:48:21;;;;;;;7.83;6.50;;;;;;;11.59;56.99;100959.55;1663329;86;21618;-50
2021/04/03 00:50:52;;;;;;;6.17;5.67;;;;;;;11.61;56.75;100953.86;1689920;84;21163;-50
2021/04/03 00:53:27;;;;;;;7.05;6.45;;;;;;;11.62;56.43;100958.20;1686983;84;21158;-49
2021/04/03 00:56:03;;;;;;;7.12;6.45;;;;;;;11.62;56.38;100956.45;1682701;84;21178;-50
2021/04/03 00:58:32;;;;;;;7.28;6.58;;;;;;;11.60;55.99;100949.55;1686919;84;21246;-50
2021/04/03 01:01:03;;;;;;;7.42;6.70;;;;;;;11.57;56.70;100952.22;1686427;84;21147;-50
2021/04/03 01:03:33;;;;;;;7.03;6.42;;;;;;;11.58;56.98;100956.55;1687277;84;21183;-50
2021/04/03 01:06:03;;;;;;;6.53;5.92;;;;;;;11.61;57.22;100969.50;1683156;84;21217;-50
2021/04/03 01:08:32;;;;;;;8.10;6.22;;;;;;;11.62;56.72;100966.02;1689634;84;21202;-50
2021/04/03 01:11:00;;;;;;;6.70;6.10;;;;;;;11.60;56.77;100975.62;1687763;84;21218;-51
2021/04/03 01:13:52;;;;;;;7.05;6.35;;;;;;;11.61;56.67;100959.08;1675830;83;21166;-50
2021/04/03 01:16:42;;;;;;;6.28;5.67;;;;;;;11.58;55.97;100951.34;1771016;79;23142;-51
2021/04/03 01:19:29;;;;;;;6.28;5.67;;;;;;;11.52;56.08;100954.09;1736756;82;21330;-50
2021/04/03 01:22:26;;;;;;;5.35;4.85;;;;;;;11.46;55.50;100948.11;1741012;82;21117;-51
2021/04/03 01:25:12;;;;;;;6.35;4.95;;;;;;;11.40;55.70;100953.45;1689101;84;21191;-50
2021/04/03 01:28:04;;;;;;;5.35;4.85;;;;;;;11.37;56.04;100955.28;1678800;85;21198;-51
2021/04/03 01:30:39;;;;;;;6.47;5.80;;;;;;;11.35;55.90;100970.92;1778432;79;23114;-50
2021/04/03 01:33:09;;;;;;;7.12;6.33;;;;;;;11.29;56.56;100967.62;1745301;82;21215;-51
2021/04/03 01:35:53;;;;;;;6.50;5.87;;;;;;;11.35;56.73;100973.53;1738423;82;21545;-49
2021/04/03 01:38:45;;;;;;;6.30;5.70;;;;;;;11.41;57.27;100968.22;1745180;82;21156;-50
2021/04/03 01:41:15;;;;;;;6.35;5.75;;;;;;;11.39;56.92;100960.88;1693913;84;21622;-51
2021/04/03 01:43:48;;;;;;;5.30;4.80;;;;;;;11.39;56.82;100962.18;1657794;84;21214;-50
2021/04/03 01:46:21;;;;;;;6.22;5.72;;;;;;;11.38;57.14;100978.69;1671965;85;21146;-50
2021/04/03 01:48:51;;;;;;;5.85;5.35;;;;;;;11.36;56.58;100984.38;1647447;84;21182;-51
2021/04/03 01:51:19;;;;;;;5.90;5.33;;;;;;;11.44;57.01;100994.62;1654436;85;21205;-50
2021/04/03 01:53:48;;;;;;;6.55;5.55;;;;;;;11.44;57.06;100986.37;1682484;84;21331;-50
2021/04/03 01:56:18;;;;;;;6.83;5.85;;;;;;;11.44;57.87;100988.98;1674208;85;21411;-50
2021/04/03 01:58:46;;;;;;;5.87;5.10;;;;;;;11.46;57.64;100987.20;1650841;84;21201;-50
2021/04/03 02:01:14;;;;;;;5.35;4.85;;;;;;;11.41;58.01;100978.63;1687678;85;21178;-50
2021/04/03 02:03:45;;;;;;;5.65;5.15;;;;;;;11.29;57.05;100986.68;1680123;84;21177;-50
2021/04/03 02:06:16;;;;;;;4.87;4.37;;;;;;;11.27;58.19;100993.67;1675183;85;21178;-50
2021/04/03 02:08:52;;;;;;;5.20;4.72;;;;;;;11.35;58.55;100996.97;1795099;79;28219;-51
2021/04/03 02:11:25;;;;;;;5.50;5.00;;;;;;;11.39;58.37;101007.77;1780852;80;21183;-50
2021/04/03 02:13:54;;;;;;;4.65;4.25;;;;;;;11.48;57.87;101009.77;1773541;80;21115;-50
2021/04/03 02:16:23;;;;;;;4.40;4.00;;;;;;;11.46;57.84;101012.38;1736188;80;21131;-51
2021/04/03 02:18:52;;;;;;;5.37;4.87;;;;;;;11.41;58.02;101002.09;1745687;80;21151;-50
2021/04/03 02:21:20;;;;;;;4.85;3.80;;;;;;;11.37;58.10;101001.70;1781789;80;21108;-49
2021/04/03 02:23:49;;;;;;;6.42;4.05;;;;;;;11.43;58.15;101010.73;1759162;80;21187;-50
2021/04/03 02:26:17;;;;;;;4.60;4.20;;;;;;;11.44;58.10;101017.64;1777077;80;21132;-49
2021/04/03 02:28:45;;;;;;;5.53;3.47;;;;;;;11.44;58.30;101018.94;1776826;80;21092;-50
2021/04/03 02:31:13;;;;;;;4.15;3.75;;;;;;;11.39;58.16;101010.81;1776722;80;21563;-50
2021/04/03 02:33:42;;;;;;;4.35;3.92;;;;;;;11.42;57.98;101012.91;1775655;80;21564;-50
2021/04/03 02:36:10;;;;;;;3.98;3.60;;;;;;;11.41;57.55;101021.62;1777563;80;21137;-50
2021/04/03 02:38:40;;;;;;;4.03;3.62;;;;;;;11.37;57.52;101016.03;1760179;80;21705;-50
2021/04/03 02:41:20;;;;;;;3.77;3.42;;;;;;;11.39;57.70;101022.11;1803964;78;28284;-50
2021/04/03 02:44:10;;;;;;;3.30;3.02;;;;;;;11.38;57.37;101028.19;1768795;80;21175;-50
2021/04/03 02:46:48;;;;;;;3.95;3.58;;;;;;;11.40;57.33;101025.11;1740546;81;21175;-50
2021/04/03 02:49:24;;;;;;;5.05;3.67;;;;;;;11.37;57.28;101025.16;1752753;81;21160;-50
2021/04/03 02:51:55;;;;;;;3.77;3.47;;;;;;;11.26;57.36;101015.42;1751639;81;21168;-52
2021/04/03 02:54:25;;;;;;;3.87;3.10;;;;;;;11.15;57.49;101021.71;1727202;81;21574;-50
2021/04/03 02:56:53;;;;;;;4.78;3.25;;;;;;;11.09;57.44;101024.00;1755807;81;21129;-50
2021/04/03 02:59:30;;;;;;;4.05;3.35;;;;;;;10.98;57.94;101019.47;1735070;81;21155;-50
2021/04/03 03:02:00;;;;;;;4.92;3.67;;;;;;;10.96;58.19;101021.23;1757459;81;21286;-50
2021/04/03 03:04:28;;;;;;;3.83;3.42;;;;;;;10.97;57.58;101023.37;1717987;83;21184;-50
2021/04/03 03:06:57;;;;;;;5.35;3.42;;;;;;;10.88;57.08;101027.00;1735466;82;21173;-49
2021/04/03 03:09:27;;;;;;;4.28;3.10;;;;;;;10.79;57.54;101033.70;1710973;83;21180;-50
2021/04/03 03:11:58;;;;;;;4.97;3.87;;;;;;;10.74;58.00;101035.52;1726129;83;21256;-50
2021/04/03 03:14:29;;;;;;;4.25;3.05;;;;;;;10.70;58.02;101041.66;1729635;83;21576;-51
2021/04/03 03:16:59;;;;;;;5.92;3.40;;;;;;;10.70;58.37;101041.66;1754842;81;21147;-51
2021/04/03 03:19:27;;;;;;;3.40;3.10;;;;;;;10.72;58.49;101047.70;1698912;83;21144;-50
2021/04/03 03:21:56;;;;;;;2.90;2.70;;;;;;;10.72;58.42;101039.89;1640954;86;21167;-50
2021/04/03 03:24:25;;;;;;;3.17;2.87;;;;;;;10.72;58.27;101042.49;1700511;83;21180;-50
2021/04/03 03:26:55;;;;;;;2.95;2.72;;;;;;;10.72;58.32;101035.98;1677653;83;21189;-50
2021/04/03 03:29:24;;;;;;;4.50;3.42;;;;;;;10.72;58.05;101032.08;1704776;83;21652;-50
2021/04/03 03:31:54;;;;;;;3.83;3.15;;;;;;;10.60;58.08;101033.17;1705005;83;21196;-50
2021/04/03 03:34:24;;;;;;;3.30;2.90;;;;;;;10.55;58.23;101041.95;1723325;83;21184;-50
2021/04/03 03:36:53;;;;;;;3.62;2.98;;;;;;;10.55;58.47;101041.95;1724611;83;21699;-50
2021/04/03 03:39:21;;;;;;;3.40;3.10;;;;;;;10.52;58.60;101038.08;1722237;83;21873;-50
2021/04/03 03:41:56;;;;;;;4.80;3.67;;;;;;;10.50;58.76;101036.81;1713429;83;21310;-50
2021/04/03 03:44:26;;;;;;;3.25;2.95;;;;;;;10.50;58.81;101038.55;1623789;86;21213;-50
2021/04/03 03:46:54;;;;;;;3.87;3.10;;;;;;;10.49;58.77;101035.09;1645517;86;21215;-50
2021/04/03 03:49:29;;;;;;;5.22;2.87;;;;;;;10.49;58.95;101032.48;1810243;79;22994;-50
2021/04/03 03:51:58;;;;;;;4.42;3.40;;;;;;;10.46;59.30;101042.95;1778716;80;21192;-50
2021/04/03 03:54:25;;;;;;;3.98;2.70;;;;;;;10.43;58.94;101040.39;1775770;80;21120;-50
2021/04/03 03:56:55;;;;;;;3.10;2.85;;;;;;;10.38;59.25;101049.17;1780904;80;21601;-49
2021/04/03 03:59:23;;;;;;;3.58;2.98;;;;;;;10.37;59.66;101043.53;1771002;80;21131;-50
2021/04/03 04:01:53;;;;;;;3.30;3.00;;;;;;;10.37;59.55;101039.63;1783778;80;21172;-50
2021/04/03 04:04:21;;;;;;;7.35;3.50;;;;;;;10.37;59.38;101027.92;1771561;80;21156;-49
2021/04/03 04:06:52;;;;;;;3.42;2.85;;;;;;;10.39;59.45;101024.85;1777435;80;21155;-50
2021/04/03 04:09:22;;;;;;;4.17;3.00;;;;;;;10.39;59.16;101025.72;1778730;80;21644;-50
2021/04/03 04:11:52;;;;;;;3.85;2.95;;;;;;;10.41;59.07;101025.69;1776995;80;21143;-50
2021/04/03 04:14:22;;;;;;;4.87;2.87;;;;;;;10.41;59.07;101029.59;1779594;80;21571;-51
2021/04/03 04:16:52;;;;;;;4.03;3.00;;;;;;;10.40;59.03;101024.85;1768674;80;21144;-51
2021/04/03 04:19:21;;;;;;;4.72;2.90;;;;;;;10.42;58.77;101032.63;1781175;80;21136;-50
2021/04/03 04:21:50;;;;;;;3.80;2.80;;;;;;;10.44;58.80;101038.66;1775733;80;21144;-49
2021/04/03 04:24:18;;;;;;;4.12;2.77;;;;;;;10.50;58.38;101043.75;1778623;80;21140;-50
2021/04/03 04:26:46;;;;;;;3.30;3.00;;;;;;;10.50;57.99;101056.33;1777381;80;21184;-50
2021/04/03 04:29:14;;;;;;;4.42;2.70;;;;;;;10.51;57.90;101062.37;1782973;80;21172;-50
2021/04/03 04:31:42;;;;;;;3.65;3.20;;;;;;;10.51;57.45;101071.47;1775293;80;21163;-50
2021/04/03 04:34:12;;;;;;;4.40;3.08;;;;;;;10.48;57.51;101067.64;1774358;80;21310;-50
2021/04/03 04:36:41;;;;;;;3.45;2.75;;;;;;;10.50;57.69;101069.77;1779312;80;21147;-50
2021/04/03 04:39:11;;;;;;;3.27;3.00;;;;;;;10.48;57.33;101075.02;1776717;80;21148;-50
2021/04/03 04:41:42;;;;;;;3.52;3.00;;;;;;;10.45;57.80;101083.28;1774570;80;21205;-49
2021/04/03 04:44:10;;;;;;;4.28;3.12;;;;;;;10.47;57.81;101078.91;1777177;80;21636;-50
2021/04/03 04:46:38;;;;;;;3.62;2.95;;;;;;;10.51;57.87;101084.48;1748472;80;21176;-50
2021/04/03 04:49:06;;;;;;;4.67;3.27;;;;;;;10.58;57.71;101092.62;1773648;80;21176;-49
2021/04/03 04:51:34;;;;;;;7.72;2.95;;;;;;;10.66;57.84;101089.45;1772402;80;21136;-50
2021/04/03 04:54:10;;;;;;;4.35;2.65;;;;;;;10.74;57.60;101079.77;1763471;80;21129;-49
2021/04/03 04:56:39;;;;;;;3.00;2.60;;;;;;;10.84;57.29;101078.72;1771921;80;21576;-50
2021/04/03 04:59:09;;;;;;;4.78;3.30;;;;;;;10.90;57.15;101075.16;1769685;80;21727;-50
2021/04/03 05:01:38;;;;;;;3.08;2.67;;;;;;;10.95;56.97;101085.91;1764039;80;21117;-50
2021/04/03 05:04:07;;;;;;;3.70;2.75;;;;;;;11.01;56.68;101094.91;1771303;80;21148;-50
2021/04/03 05:06:35;;;;;;;4.25;2.70;;;;;;;11.10;56.42;101106.91;1769001;80;21165;-50
2021/04/03 05:09:05;;;;;;;3.52;3.10;;;;;;;11.15;56.28;101113.73;1766725;80;21152;-50
2021/04/03 05:11:33;;;;;;;3.40;2.65;;;;;;;11.16;56.16;101104.19;1772825;80;21163;-50
2021/04/03 05:14:02;;;;;;;3.30;2.80;;;;;;;11.18;56.17;101105.02;1765212;80;21177;-50
2021/04/03 05:16:30;;;;;;;4.75;3.00;;;;;;;11.20;56.44;101111.92;1770375;80;21188;-50
2021/04/03 05:18:58;;;;;;;8.05;2.80;;;;;;;11.16;56.52;101101.14;1768831;80;21137;-51
2021/04/03 05:21:26;;;;;;;3.87;2.98;;;;;;;11.15;56.60;101097.24;1769579;80;21572;-50
2021/04/03 05:23:54;;;;;;;3.35;3.00;;;;;;;11.14;56.68;101104.22;1767698;80;21287;-50
2021/04/03 05:26:21;;;;;;;3.47;3.10;;;;;;;11.15;56.62;101102.45;1767551;80;21180;-50
2021/04/03 05:28:50;;;;;;;3.65;3.22;;;;;;;11.15;56.76;101114.17;1766036;80;21156;-50
2021/04/03 05:31:21;;;;;;;4.53;2.98;;;;;;;11.19;56.40;101112.79;1775508;80;21132;-50
2021/04/03 05:33:49;;;;;;;2.90;2.58;;;;;;;11.19;56.34;101124.98;1762088;80;21152;-50
2021/04/03 05:36:18;;;;;;;5.03;2.75;;;;;;;11.15;56.43;101124.16;1771545;80;21571;-49
2021/04/03 05:38:46;;;;;;;4.55;2.87;;;;;;;11.10;56.41;101133.81;1767751;80;21124;-49
2021/04/03 05:41:14;;;;;;;4.28;3.05;;;;;;;11.08;56.50;101135.59;1771185;80;21569;-51
2021/04/03 05:43:42;;;;;;;4.10;3.10;;;;;;;11.04;56.55;101136.53;1766864;80;21195;-50
2021/04/03 05:46:10;;;;;;;4.55;2.75;;;;;;;11.04;56.43;101144.34;1773651;80;21726;-49
2021/04/03 05:48:38;;;;;;;6.37;3.27;;;;;;;11.06;56.42;101145.17;1768969;80;21133;-50
2021/04/03 05:51:06;;;;;;;3.42;2.80;;;;;;;11.09;56.36;101152.91;1718290;81;21121;-50
2021/04/03 05:53:35;;;;;;;4.03;2.92;;;;;;;11.21;56.03;101160.50;1742253;81;21192;-50
2021/04/03 05:56:05;;;;;;;4.03;2.98;;;;;;;11.37;55.55;101156.73;1762895;81;21148;-51
2021/04/03 05:58:32;;;;;;;3.65;2.67;;;;;;;11.56;54.75;101152.03;1763879;81;21145;-50
2021/04/03 06:01:00;;;;;;;4.97;3.25;;;;;;;11.71;54.38;101149.59;1764026;81;21334;-49
2021/04/03 06:03:28;;;;;;;4.03;3.00;;;;;;;11.87;54.27;101148.42;1763322;81;21125;-51
2021/04/03 06:05:57;;;;;;;5.35;3.35;;;;;;;11.96;53.93;101145.17;1764197;81;21165;-50
2021/04/03 06:08:32;;;;;;;3.58;2.75;;;;;;;12.03;53.59;101144.60;1765229;81;21192;-50
2021/04/03 06:11:15;;;;;;;2.80;2.50;;;;;;;12.16;53.21;101151.25;1766179;81;21220;-49
2021/04/03 06:14:02;;;;;;;3.52;2.65;;;;;;;12.39;52.97;101159.43;1767057;81;21148;-50
2021/04/03 06:16:39;;;;;;;3.17;2.70;;;;;;;12.60;51.89;101165.47;1764107;81;21144;-50
2021/04/03 06:19:24;;;;;;;6.20;3.05;;;;;;;12.69;51.69;101163.96;1755757;81;21193;-50
2021/04/03 06:21:57;;;;;;;4.08;3.05;;;;;;;12.89;51.20;101168.25;1760243;81;21164;-50
2021/04/03 06:24:36;;;;;;;4.05;2.80;;;;;;;13.15;50.96;101166.77;1768221;79;21133;-50
2021/04/03 06:27:14;;;;;;;5.00;3.20;;;;;;;13.33;50.51;101163.67;1756875;81;21330;-50
2021/04/03 06:29:52;;;;;;;3.90;3.10;;;;;;;13.40;49.89;101173.05;1737874;82;21141;-49
2021/04/03 06:35:04;;;;;;;4.45;3.40;;;;;;;13.53;49.58;101173.14;1756298;79;22995;-50
2021/04/03 06:37:35;;;;;;;3.20;2.90;;;;;;;13.48;49.46;101185.47;1740520;82;21196;-50
2021/04/03 06:40:10;;;;;;;9.95;4.65;;;;;;;13.37;49.92;101189.70;1689576;84;21189;-50
2021/04/03 06:42:55;;;;;;;4.62;2.95;;;;;;;13.30;49.90;101182.03;1700090;84;21180;-50
2021/04/03 06:45:34;;;;;;;3.40;2.67;;;;;;;13.29;50.19;101185.56;1668847;85;21704;-49
2021/04/03 06:48:09;;;;;;;3.10;2.65;;;;;;;13.32;50.28;101183.72;1693022;84;21353;-50
2021/04/03 06:50:45;;;;;;;5.95;3.17;;;;;;;13.45;49.93;101179.03;1811395;79;23083;-50
2021/04/03 06:53:16;;;;;;;6.12;2.70;;;;;;;13.38;49.49;101184.00;1783773;80;21152;-50
2021/04/03 06:55:48;;;;;;;3.45;3.12;;;;;;;13.35;49.83;101182.78;1782665;80;21159;-49
2021/04/03 06:58:16;;;;;;;4.58;3.02;;;;;;;13.28;49.59;101176.86;1684830;85;21180;-49
2021/04/03 07:00:46;;;;;;;5.12;3.08;;;;;;;13.26;49.44;101183.88;1671654;85;21345;-49
2021/04/03 07:03:23;;;;;;;6.08;2.92;;;;;;;13.18;49.83;101188.45;1673825;85;21173;-50
2021/04/03 07:05:51;;;;;;;3.17;2.87;;;;;;;13.18;50.25;101187.58;1676290;85;21232;-49
2021/04/03 07:08:20;;;;;;;10.55;3.55;;;;;;;13.20;49.71;101189.27;1679508;85;21307;-50
2021/04/03 07:10:48;;;;;;;4.87;2.80;;;;;;;13.20;49.73;101191.88;1671474;85;21188;-50
2021/04/03 07:13:15;;;;;;;4.25;2.90;;;;;;;13.25;49.85;101189.16;1672567;85;21200;-49
2021/04/03 07:15:44;;;;;;;3.40;2.55;;;;;;;13.30;49.96;101192.48;1675386;85;21165;-49
2021/04/03 07:18:14;;;;;;;3.15;2.85;;;;;;;13.44;49.79;101190.37;1636226;86;21191;-50
2021/04/03 07:20:42;;;;;;;4.35;2.70;;;;;;;13.57;49.49;101191.77;1679829;85;21671;-49
2021/04/03 07:23:11;;;;;;;5.08;2.75;;;;;;;13.60;49.32;101182.08;1672488;85;21590;-49
2021/04/03 07:25:44;;;;;;;5.60;2.52;;;;;;;13.66;49.49;101179.29;1681412;85;21172;-50
2021/04/03 07:28:16;;;;;;;3.92;2.50;;;;;;;13.78;48.98;101178.11;1674009;85;21791;-49
2021/04/03 07:30:46;;;;;;;3.40;2.90;;;;;;;13.87;48.88;101181.31;1674199;85;21203;-49
2021/04/03 07:33:21;;;;;;;2.92;2.72;;;;;;;13.93;48.69;101188.12;1673304;85;21163;-49
2021/04/03 07:35:58;;;;;;;3.25;2.92;;;;;;;13.84;48.57;101193.63;1679945;85;21193;-50
2021/04/03 07:38:37;;;;;;;3.67;2.90;;;;;;;13.72;48.38;101184.34;1799270;79;23056;-50
2021/04/03 07:41:15;;;;;;;4.95;3.37;;;;;;;13.61;48.98;101193.40;1767741;80;21137;-50
2021/04/03 07:43:46;;;;;;;3.47;3.08;;;;;;;13.60;48.83;101193.01;1766908;80;21108;-50
2021/04/03 07:46:23;;;;;;;4.70;2.98;;;;;;;13.55;48.64;101190.52;1774117;80;21147;-50
2021/04/03 07:48:57;;;;;;;3.30;2.87;;;;;;;13.48;48.30;101188.08;1766264;80;21122;-50
2021/04/03 07:51:34;;;;;;;4.45;3.40;;;;;;;13.42;48.89;101196.95;1776240;80;21164;-50
2021/04/03 07:54:04;;;;;;;3.05;2.37;;;;;;;13.42;48.75;101196.95;1723407;81;21108;-50
2021/04/03 07:56:52;;;;;;;3.50;2.90;;;;;;;13.47;49.31;101205.98;1723129;83;21171;-50
2021/04/03 07:59:47;;;;;;;3.62;2.75;;;;;;;13.47;49.00;101205.98;1633491;87;21669;-50
2021/04/03 08:02:24;;;;;;;3.67;2.87;;;;;;;13.52;49.19;101211.94;1767880;79;22615;-49
2021/04/03 08:04:52;;;;;;;4.85;2.98;;;;;;;13.45;49.48;101215.63;1640244;84;21190;-50
2021/04/03 08:07:22;;;;;;;4.08;3.00;;;;;;;13.49;49.46;101222.05;1633163;86;21194;-50
2021/04/03 08:09:50;;;;;;;5.65;3.75;;;;;;;13.55;49.32;101222.33;1653475;85;21148;-50
2021/04/03 08:12:21;;;;;;;7.25;2.60;;;;;;;13.60;49.11;101228.30;1646274;86;21703;-50
2021/04/03 08:14:51;;;;;;;4.00;2.95;;;;;;;13.67;48.71;101225.92;1642823;86;21234;-51
2021/04/03 08:17:20;;;;;;;7.80;4.03;;;;;;;13.75;48.26;101225.26;1641803;86;21332;-50
2021/04/03 08:19:50;;;;;;;2.72;2.47;;;;;;;13.84;47.86;101230.25;1631054;86;21293;-50
2021/04/03 08:22:19;;;;;;;3.27;2.77;;;;;;;13.91;47.66;101235.70;1634384;86;21127;-50
2021/04/03 08:24:58;;;;;;;2.52;2.25;;;;;;;13.95;47.30;101238.64;1649192;86;21768;-50
2021/04/03 08:27:33;;;;;;;4.37;2.77;;;;;;;13.99;46.76;101248.16;1635957;86;21190;-50
2021/04/03 08:30:20;;;;;;;3.77;2.50;;;;;;;14.04;46.31;101237.09;1629248;86;22349;-50
2021/04/03 08:32:33;;;;;;;3.02;2.50;;;;;;;14.10;46.57;101243.45;1645526;86;21164;-51
2021/04/03 08:35:01;;;;;;;4.50;2.00;;;;;;;14.16;45.49;101234.12;1638449;86;21173;-50
2021/04/03 08:37:29;;;;;;;2.27;2.05;;;;;;;14.26;44.86;101239.48;1624712;86;21199;-51
2021/04/03 08:39:57;;;;;;;4.97;2.42;;;;;;;14.28;44.28;101252.11;1642296;85;21151;-50
2021/04/03 08:42:24;;;;;;;3.95;2.37;;;;;;;14.32;44.17;101252.43;1626602;86;21361;-50
2021/04/03 08:44:52;;;;;;;2.67;1.40;;;;;;;14.33;44.41;101248.92;1652333;85;21108;-51
2021/04/03 08:47:22;;;;;;;2.20;1.35;;;;;;;14.32;43.06;101257.67;1644757;86;21321;-50
2021/04/03 08:49:50;;;;;;;4.17;1.12;;;;;;;14.35;42.31;101252.36;1642804;86;21178;-50
2021/04/03 08:52:18;;;;;;;2.17;1.22;;;;;;;14.44;41.77;101249.48;1642104;86;21170;-50
2021/04/03 08:54:47;;;;;;;2.35;1.27;;;;;;;14.52;40.12;101242.25;1639227;86;21501;-51
2021/04/03 08:57:27;;;;;;;1.45;1.10;;;;;;;14.57;39.34;101239.02;1639091;86;21218;-51
2021/04/03 09:00:00;;;;;;;1.15;0.98;;;;;;;14.59;39.10;101235.04;1643957;86;21151;-50
2021/04/03 09:02:28;;;;;;;2.58;1.20;;;;;;;14.65;38.73;101227.86;1702957;83;21133;-50
2021/04/03 09:04:56;;;;;;;2.37;1.70;;;;;;;14.64;38.85;101225.30;1728585;82;21144;-50
2021/04/03 09:07:35;;;;;;;1.40;1.27;;;;;;;14.60;39.14;101235.02;1727316;82;21134;-50
2021/04/03 09:12:50;;;;;;;2.47;1.40;;;;;;;14.65;39.32;101237.02;1759311;79;23151;-50
2021/04/03 09:15:27;;;;;;;1.45;1.25;;;;;;;14.57;38.75;101241.64;1738005;82;21862;-51
2021/04/03 09:17:57;;;;;;;1.87;1.40;;;;;;;14.60;38.78;101242.88;1735883;82;21128;-51
2021/04/03 09:20:28;;;;;;;1.35;0.93;;;;;;;14.61;38.47;101235.41;1731412;82;21266;-50
2021/04/03 09:23:05;;;;;;;2.62;1.65;;;;;;;14.59;38.30;101235.04;1727674;82;21136;-50
2021/04/03 09:25:33;;;;;;;4.90;1.27;;;;;;;14.64;38.80;101235.77;1705964;83;21302;-50
2021/04/03 09:28:11;;;;;;;1.37;1.02;;;;;;;14.72;38.98;101243.37;1712452;83;21282;-50
2021/04/03 09:30:44;;;;;;;1.10;0.98;;;;;;;14.77;38.24;101238.42;1706004;83;21200;-50
2021/04/03 09:33:25;;;;;;;2.33;1.20;;;;;;;14.79;38.92;101238.38;1708885;83;21152;-50
2021/04/03 09:36:10;;;;;;;2.90;1.20;;;;;;;14.84;38.47;101233.38;1791577;79;27793;-50
2021/04/03 09:38:39;;;;;;;2.62;2.42;;;;;;;14.84;38.47;101233.38;1779337;80;21513;-50
2021/04/03 09:41:22;;;;;;;2.75;1.05;;;;;;;14.93;36.92;101226.55;1784492;80;21132;-49
2021/04/03 09:43:50;;;;;;;2.35;0.93;;;;;;;15.00;35.52;101226.73;1775058;80;21112;-50
2021/04/03 09:46:18;;;;;;;2.37;1.07;;;;;;;15.06;35.03;101228.33;1772994;80;21167;-50
2021/04/03 09:48:47;;;;;;;3.17;1.65;;;;;;;15.17;34.42;101224.44;1768780;80;21644;-49
2021/04/03 09:51:15;;;;;;;1.52;0.85;;;;;;;15.15;34.15;101228.00;1776128;80;21196;-50
2021/04/03 09:53:45;;;;;;;28.42;18.50;;;;;;;15.12;34.42;101218.95;1778970;80;21631;-49
2021/04/03 09:56:12;;;;;;;9.18;6.62;;;;;;;15.09;34.80;101228.21;1775753;80;21164;-50
2021/04/03 09:58:41;;;;;;;11.28;6.33;;;;;;;15.11;33.95;101218.53;1779675;80;21160;-49
2021/04/03 10:01:10;;;;;;;31.80;18.85;;;;;;;15.09;33.56;101230.38;1779412;80;21172;-50
2021/04/03 10:03:40;;;;;;;8.20;5.87;;;;;;;15.03;33.89;101230.59;1776595;80;21184;-48
2021/04/03 10:06:08;;;;;;;5.75;3.10;;;;;;;15.03;34.04;101231.03;1767192;80;21148;-48
2021/04/03 10:08:36;;;;;;;4.17;2.12;;;;;;;15.07;33.39;101227.41;1786324;80;21124;-51
2021/04/03 10:11:05;;;;;;;66.62;37.67;;;;;;;15.12;32.77;101229.44;1775236;80;21160;-50
2021/04/03 10:13:34;;;;;;;14.60;8.35;;;;;;;15.11;33.73;101218.53;1762872;80;21192;-51
2021/04/03 10:16:04;;;;;;;4.05;2.52;;;;;;;15.11;34.02;101231.19;1771253;80;21148;-51
2021/04/03 10:18:34;;;;;;;2.87;1.67;;;;;;;15.18;33.73;101223.98;1777123;80;21176;-52
2021/04/03 10:21:03;;;;;;;16.17;10.08;;;;;;;15.27;33.03;101236.80;1734943;81;21169;-51
2021/04/03 10:23:32;;;;;;;3.27;1.95;;;;;;;15.34;32.85;101234.36;1718142;83;21174;-51
2021/04/03 10:26:00;;;;;;;3.27;1.85;;;;;;;15.44;32.46;101239.73;1716797;83;21595;-51
2021/04/03 10:28:28;;;;;;;4.22;3.10;;;;;;;15.51;32.79;101236.45;1708884;83;21180;-51
2021/04/03 10:30:56;;;;;;;3.87;3.30;;;;;;;15.54;33.28;101235.88;1717547;83;21580;-50
2021/04/03 10:33:24;;;;;;;2.15;1.50;;;;;;;15.57;34.38;101239.72;1718495;83;21156;-51
2021/04/03 10:35:52;;;;;;;2.75;2.20;;;;;;;15.61;33.73;101249.64;1689570;83;21242;-50
2021/04/03 10:38:21;;;;;;;6.20;4.90;;;;;;;15.63;33.49;101242.12;1677162;85;21370;-50
2021/04/03 10:40:49;;;;;;;9.05;6.78;;;;;;;15.62;33.01;101235.64;1707012;83;21183;-50
2021/04/03 10:43:16;;;;;;;3.40;2.67;;;;;;;15.62;33.53;101232.53;1716117;82;21125;-50
2021/04/03 10:45:44;;;;;;;1.50;1.25;;;;;;;15.63;34.19;101242.12;1740613;81;21156;-50
2021/04/03 10:48:13;;;;;;;12.15;7.22;;;;;;;15.62;33.94;101239.09;1738678;81;21165;-51
2021/04/03 10:50:41;;;;;;;12.95;8.18;;;;;;;15.64;35.00;101234.65;1738235;81;21181;-50
2021/04/03 10:53:10;;;;;;;5.17;4.22;;;;;;;15.64;36.17;101239.06;1742915;81;21128;-50
2021/04/03 10:55:39;;;;;;;5.30;3.58;;;;;;;15.60;35.11;101235.66;1745766;81;21637;-50
2021/04/03 10:58:08;;;;;;;2.75;1.80;;;;;;;15.58;35.24;101244.05;1741873;81;21290;-51
2021/04/03 11:00:38;;;;;;;2.65;1.80;;;;;;;15.64;36.27;101249.55;1751619;81;21274;-50
2021/04/03 11:03:07;;;;;;;1.80;1.40;;;;;;;15.71;35.87;101247.97;1737792;81;21163;-50
2021/04/03 11:05:35;;;;;;;3.65;1.62;;;;;;;15.82;35.95;101247.14;1740926;81;21144;-50
2021/04/03 11:08:04;;;;;;;3.10;1.17;;;;;;;15.93;37.28;101254.16;1740195;81;21188;-50
2021/04/03 11:10:32;;;;;;;2.47;1.45;;;;;;;16.03;37.37;101255.54;1747808;81;21164;-50
2021/04/03 11:13:02;;;;;;;4.00;2.10;;;;;;;16.15;37.59;101252.50;1742753;81;21144;-48
2021/04/03 11:15:30;;;;;;;1.95;1.40;;;;;;;16.27;39.37;101252.04;1754684;79;21152;-49
2021/04/03 11:17:58;;;;;;;2.27;1.37;;;;;;;16.34;38.57;101247.42;1743406;81;21482;-49
2021/04/03 11:20:27;;;;;;;1.70;1.50;;;;;;;16.28;38.76;101239.30;1739380;81;21116;-48
2021/04/03 11:22:57;;;;;;;2.08;1.47;;;;;;;16.19;39.66;101244.91;1737875;81;21596;-48
2021/04/03 11:25:25;;;;;;;3.67;1.50;;;;;;;16.10;40.13;101237.80;1731559;81;21652;-48
2021/04/03 11:27:53;;;;;;;1.90;1.22;;;;;;;15.99;39.95;101250.00;1733445;81;21583;-50
2021/04/03 11:30:22;;;;;;;2.20;1.47;;;;;;;15.89;39.38;101257.81;1740958;81;21122;-50
2021/04/03 11:32:52;;;;;;;5.78;2.00;;;;;;;15.79;39.90;101258.18;1747534;81;21721;-50
2021/04/03 11:35:22;;;;;;;2.47;1.60;;;;;;;15.70;40.37;101256.77;1742837;81;21185;-48
2021/04/03 11:37:50;;;;;;;1.87;1.10;;;;;;;15.63;39.51;101252.62;1773239;79;21547;-49
2021/04/03 11:40:20;;;;;;;2.67;1.20;;;;;;;15.57;39.91;101255.46;1778361;79;21243;-50
2021/04/03 11:42:52;;;;;;;2.20;1.10;;;;;;;15.54;40.10;101248.99;1721861;82;21296;-50
2021/04/03 11:45:19;;;;;;;2.40;1.40;;;;;;;15.52;39.83;101249.50;1728650;82;21193;-50
2021/04/03 11:47:48;;;;;;;1.85;1.00;;;;;;;15.44;39.62;101244.97;1770564;79;21204;-50